»·PEaware :: N2095K KSBA-KSMX

N2095K :: KSBA-KSMX

FLIGHT INFORMATION

Flight Status: Arrived
Operator: Privately registered:
United States
More flights under this callsign
Pilot: Vinicius U. (17612)
Aircraft: CESSNA 172 SKYHAWK
(C172)
More flights by this aircraft type
Origin: KSBA Santa Barbara Mun
United States
Destination: KSMX Santa Maria Pub/Capt Hancock
United States
More flights between these airports :: More routes between these airports
Route: +GVO
File this flight plan on PilotEdge
Remarks:
Altitude:
(Current/Filed)
7,000ft
Speed:
(Current/Filed)
125kts
Departed: 06-Jan-18 11:12 AM
Arrived: 06-Jan-18 12:01 PM
Distance/Time
Traveled:
41nm/0:49
Distance/Time
To Go:
Arrived

Flight Plot

Page will automatically refresh every two minutes.


Map Options




Map Legend


Flown Route
Filed Route
Departure Airport
Arrival Airport
Navaid (VOR, NDB)
Fix

Horizontal Profiles

Position Reports

Time Latitude Longitude Heading Altitude Ground
Speed
06-Jan-18 11:02 34.422470 -119.835455 72 13ft 0kts
06-Jan-18 11:03 34.422470 -119.835455 72 13ft 0kts
06-Jan-18 11:04 34.422470 -119.835455 72 13ft 0kts
06-Jan-18 11:05 34.422470 -119.835455 72 13ft 0kts
06-Jan-18 11:06 34.422470 -119.835455 72 13ft 0kts
06-Jan-18 11:07 34.422470 -119.835455 72 13ft 0kts
06-Jan-18 11:08 34.422470 -119.835455 72 13ft 0kts
06-Jan-18 11:09 34.422470 -119.835455 72 13ft 0kts
06-Jan-18 11:10 34.422471 -119.835455 72 13ft 0kts
06-Jan-18 11:11 34.422471 -119.835453 72 13ft 0kts
06-Jan-18 11:12 34.422472 -119.835451 72 13ft 0kts
06-Jan-18 11:13 34.422472 -119.835449 72 13ft 0kts
06-Jan-18 11:14 34.423514 -119.836466 345 13ft 18kts
06-Jan-18 11:15 34.430213 -119.838699 345 13ft 25kts
06-Jan-18 11:16 34.430671 -119.839807 243 13ft 0kts
06-Jan-18 11:17 34.430667 -119.839816 242 13ft 0kts
06-Jan-18 11:18 34.423245 -119.837974 163 172ft 72kts
06-Jan-18 11:19 34.404897 -119.844067 244 604ft 89kts
06-Jan-18 11:20 34.391729 -119.871655 228 1300ft 97kts
06-Jan-18 11:21 34.375810 -119.898101 230 1972ft 97kts
06-Jan-18 11:22 34.367705 -119.927556 306 2463ft 105kts
06-Jan-18 11:23 34.389868 -119.949206 313 2991ft 102kts
06-Jan-18 11:24 34.410314 -119.972941 315 3484ft 101kts
06-Jan-18 11:25 34.432348 -119.993905 324 3974ft 100kts
06-Jan-18 11:26 34.453906 -120.015329 308 4475ft 98kts
06-Jan-18 11:27 34.475417 -120.036051 322 4959ft 100kts
06-Jan-18 11:28 34.497672 -120.056308 318 5385ft 99kts
06-Jan-18 11:29 34.517635 -120.079228 315 5830ft 97kts
06-Jan-18 11:30 34.537424 -120.101684 318 6290ft 97kts
06-Jan-18 11:31 34.558329 -120.122019 315 6718ft 96kts
06-Jan-18 11:32 34.579370 -120.142776 315 6970ft 104kts
06-Jan-18 11:33 34.603932 -120.167723 319 6474ft 120kts
06-Jan-18 11:34 34.629008 -120.193529 309 6101ft 118kts
06-Jan-18 11:35 34.651383 -120.221537 315 5860ft 116kts
06-Jan-18 11:36 34.672624 -120.246091 315 5998ft 102kts
06-Jan-18 11:37 34.692314 -120.270188 315 5983ft 105kts
06-Jan-18 11:38 34.711986 -120.296347 313 5982ft 104kts
06-Jan-18 11:39 34.732981 -120.321063 316 5967ft 105kts
06-Jan-18 11:40 34.752326 -120.347337 312 5980ft 102kts
06-Jan-18 11:41 34.771705 -120.373231 311 5975ft 103kts
06-Jan-18 11:42 34.791595 -120.399090 317 5953ft 106kts
06-Jan-18 11:43 34.812306 -120.423767 307 5994ft 103kts
06-Jan-18 11:44 34.828721 -120.453365 305 5966ft 105kts
06-Jan-18 11:45 34.846574 -120.481058 312 5980ft 104kts
06-Jan-18 11:46 34.866570 -120.506392 320 5986ft 104kts
06-Jan-18 11:47 34.888818 -120.528450 320 5997ft 104kts
06-Jan-18 11:48 34.909313 -120.552722 313 5998ft 102kts
06-Jan-18 11:49 34.929438 -120.577284 319 6012ft 102kts
06-Jan-18 11:50 34.948892 -120.602758 316 6003ft 102kts
06-Jan-18 11:51 34.967831 -120.628741 313 5990ft 103kts
06-Jan-18 11:52 34.989577 -120.654914 313 5463ft 110kts
06-Jan-18 11:53 35.011066 -120.681304 316 4961ft 109kts
06-Jan-18 11:54 35.032130 -120.709116 315 4408ft 112kts
06-Jan-18 11:55 35.054574 -120.735460 315 3843ft 113kts
06-Jan-18 11:56 35.076401 -120.722018 95 3171ft 120kts
06-Jan-18 11:57 35.066706 -120.685327 105 2938ft 105kts
06-Jan-18 11:58 35.059432 -120.650193 103 2945ft 108kts
06-Jan-18 11:59 35.042475 -120.621700 137 3055ft 105kts
06-Jan-18 12:00 35.019419 -120.597189 136 3011ft 111kts
06-Jan-18 12:01 34.998352 -120.571805 133 2936ft 96kts
06-Jan-18 12:02 34.978465 -120.548621 137 2418ft 99kts
06-Jan-18 12:03 34.958707 -120.525146 131 1754ft 98kts
06-Jan-18 12:04 34.941312 -120.502763 135 1241ft 85kts
06-Jan-18 12:05 34.924125 -120.482996 130 814ft 85kts
06-Jan-18 12:06 34.907231 -120.462932 137 398ft 80kts
06-Jan-18 12:07 34.898137 -120.453492 180 264ft 0kts
06-Jan-18 12:08 34.898135 -120.453492 180 264ft 0kts
06-Jan-18 12:09 34.895946 -120.453574 181 264ft 35kts
06-Jan-18 12:10 34.891747 -120.450331 90 264ft 25kts
06-Jan-18 12:11 34.892354 -120.446361 48 264ft 0kts
06-Jan-18 12:12 34.892355 -120.446360 48 264ft 0kts
06-Jan-18 12:13 34.893411 -120.445383 13 264ft 24kts
06-Jan-18 12:14 34.896810 -120.446426 44 264ft 3kts
06-Jan-18 12:15 34.896838 -120.446392 45 264ft 0kts
06-Jan-18 12:16 34.896838 -120.446392 45 264ft 0kts

Navigation Log

Ident Type
1. KSBA Airport
2. GVO Navaid
3. KSMX Airport